Station: Warooka

  Atmospheric Gas Attenuation - ITU Rec 676-11   --------------- db/100km ---------------
Date Time Temp RH % AH g/m3 Dew Point Wind Direction Speed kph Gust kph Barometer mB Rainfall Since 9am 24GHz 47GHz 76GHz 122GHz 134GHz 241GHz
27 09:00 13 61 6.92 5.8 2 1027.8 0 16.0 24.0 34.2 89.3 78.7 269.1
26 09:00 11.7 64 6.69 5.2 2 1023.5 0.5 15.6 23.8 33.7 87.9 76.7 262.2
25 09:00 10 61 5.73 2.8 30 1013 7 13.6 22.4 30.3 79.0 65.5 222.8
24 09:00 11.8 78 8.21 8.2 7 1013.1 2 18.9 25.8 39.2 102.9 95.7 328.8
23 09:00 12.5 77 8.47 8.7 22 1013.1 6 19.4 26.1 39.9 104.8 98.3 338.0
22 09:00 13.7 70 8.29 8.3 22 1011.7 4 18.9 25.4 38.5 101.1 94.3 324.2
21 09:00 14.7 56 7.05 6.2 44 1003.6 0.6 16.3 22.9 33.0 86.4 77.0 263.6
18 09:00 15.7 81 10.84 12.4 9 1018.6 2 24.3 29.2 48.3 127.0 126.6 437.2
17 09:00 12.7 93 10.35 11.6 22 1019.9 4 23.4 29.4 48.1 126.4 124.7 430.2
16 09:00 15 84 10.77 12.3 15 1017.8 0 24.2 29.3 48.3 127.2 126.7 437.4
15 09:00 12.8 74 8.29 8.4 15 1030.8 0 19.0 26.3 39.8 104.3 97.0 333.1
14 09:00 13.5 74 8.66 9 4 1031.8 0.2 19.7 26.8 41.0 107.5 101.1 347.7
13 09:00 12.5 76 8.36 8.5 4 1027.4 9 19.1 26.4 40.1 105.1 98.0 336.8
12 09:00 16.7 82 11.65 13.7 9 1021.3 1 25.9 30.4 51.2 134.8 136.5 472.0
11 09:00 18.5 66 10.44 12 0 1021.4 0 23.2 27.8 45.1 118.5 117.0 404.0
10 09:00 12.4 72 7.87 7.5 2 1022.4 0 18.1 25.5 38.0 99.4 91.2 313.0
09 09:00 13.1 70 7.99 7.9 19 1029.7 0 18.3 25.7 38.4 100.5 92.5 317.6
08 09:00 14.1 88 10.68 12.1 2 1024.4 0.5 24.0 29.7 48.9 128.4 127.5 440.3
07 09:00 17.6 46 6.9 5.8 26 1014.9 0 15.8 22.3 31.7 83.0 73.2 250.5
06 09:00 13.4 74 8.6 8.9 7 1020.3 0 19.6 26.3 40.3 105.7 99.5 342.2
05 09:00 13.4 84 9.77 10.7 0 1021.2 0.2 22.1 28.3 45.2 118.8 115.5 398.2
04 09:00 13.2 86 9.88 10.9 19 1018.8 0 22.4 28.4 45.7 120.1 117.1 403.9
03 09:00 12.8 74 8.29 8.4 19 1013.1 0.5 19.0 25.7 39.0 102.4 95.5 328.3
02 09:00 14.3 84 10.32 11.7 22 1007.9 0 23.3 28.4 46.4 122.1 120.5 416.0
01 09:00 10.2 82 7.81 7.3 2 1017.5 0 18.1 25.8 38.6 101.0 92.6 317.7
31 09:00 11.5 56 5.79 3.1 2 1029.1 0.6 13.7 22.7 30.6 79.5 66.0 224.3
29 09:00 14.6 67 8.38 8.5 19 1023.2 0 19.1 25.7 39.0 102.1 95.3 327.7
28 09:00 10.5 96 9.31 9.9 4 1029.7 0 21.3 28.8 45.3 118.9 114.2 393.0
27 09:00 12 97 10.34 11.6 4 1026.4 0 23.4 29.9 48.8 128.2 126.4 435.8
26 09:00 10.4 90 8.68 8.8 11 1028.7 0 19.9 27.6 42.6 111.7 105.3 361.9
25 09:00 9.1 80 7.1 5.8 2 1031.8 0 16.6 25.5 36.8 96.1 85.4 292.0
24 09:00 9 87 7.67 6.9 0 1025.6 0 17.8 26.2 38.9 101.9 92.8 318.1
23 09:00 10 79 7.43 6.6 0 1022.2 0.8 17.3 25.4 37.3 97.6 88.1 301.8
22 09:00 9 80 7.06 5.7 9 1018.6 5 16.5 25.0 36.1 94.5 84.0 287.3
21 09:00 9.4 79 7.15 5.9 7 1010.2 11 16.7 24.7 35.9 94.1 84.2 288.1
20 09:00 10.7 81 7.96 7.6 7 1010.2 3 18.4 25.6 38.6 101.3 93.5 320.9
19 09:00 11.5 81 8.37 8.3 26 999.8 23 19.2 25.7 39.4 103.6 97.1 334.0
18 09:00 12.1 87 9.33 10 28 1001.5 6 21.3 27.2 43.1 113.5 109.5 377.3
17 09:00 11.5 64 6.61 5 9 1007.3 2 15.4 23.2 32.8 85.8 74.8 255.7
14 09:00 12.5 94 10.34 11.6 19 1010.6 1 23.4 29.1 47.7 125.5 124.0 427.7
13 09:00 13.2 92 10.56 11.9 15 1009.3 2 23.8 29.2 48.1 126.7 125.8 434.3
12 09:00 12.8 91 10.19 11.3 22 1005.1 8 23.1 28.5 46.6 122.6 120.8 416.8
11 09:00 11.1 86 8.66 8.9 22 1009.3 1 19.9 26.6 41.2 108.4 102.4 352.1
10 09:00 9.9 88 8.22 8 2 1020.5 0.1 19.0 26.7 40.5 106.3 98.8 339.4
09 09:00 11.8 80 8.42 8.4 7 1021.3 1 19.3 26.5 40.4 106.0 99.2 340.9
08 09:00 10 93 8.74 9 4 1013 5 20.1 27.3 42.3 111.2 105.3 362.1
07 09:00 9.3 76 6.83 5.3 11 1015.8 0 16.0 24.4 34.9 91.4 80.4 274.9
06 09:00 6.4 79 5.89 3.1 4 1019.9 0 14.1 23.8 32.6 85.0 71.1 241.9
05 09:00 6.6 71 5.36 1.7 2 1021 0 13.0 23.0 30.5 79.3 64.1 217.3
04 09:00 8.5 64 5.47 2.1 2 1021.2 0 13.1 22.7 30.2 78.5 64.0 217.1
03 09:00 10.5 75 7.28 6.2 2 1020.7 0 16.9 25.0 36.4 95.2 85.4 292.6
02 09:00 12.4 96 10.49 11.8 0 1022.9 0 23.7 29.9 49.0 128.9 127.5 440.0
01 09:00 12.5 82 9.02 9.6 19 1022.2 0 20.5 27.3 42.6 111.8 106.5 366.7
31 09:00 8 94 7.77 7.1 0 1026.5 0 18.1 26.7 39.9 104.4 95.5 327.3
30 09:00 10.4 95 9.16 9.6 0 1029.5 0 20.9 28.5 44.7 117.3 112.1 385.9
29 09:00 9.1 97 8.61 8.7 4 1022.3 0 19.8 27.7 42.7 112.0 105.5 362.7
28 09:00 7.6 91 7.33 6.3 2 1023.1 0 17.1 26.0 38.1 99.6 89.6 306.6
27 09:00 12.3 90 9.77 10.8 4 1025 0.8 22.2 28.8 46.0 120.9 117.6 405.1
26 09:00 9.9 91 8.5 8.5 0 1024.2 0 19.6 27.3 41.9 109.9 103.0 354.1
25 09:00 10.5 93 9.02 9.5 0 1022.6 0.3 20.6 28.0 43.7 114.7 109.4 376.4
24 09:00 9 81 7.14 6 4 1019.4 0 16.7 25.1 36.5 95.4 85.1 291.3
23 09:00 7.2 85 6.68 4.9 2 1027.4 0 15.8 25.2 35.8 93.4 81.4 278.0
22 09:00 9.5 80 7.28 6.3 2 1031.6 0 16.9 25.7 37.3 97.6 87.4 299.0
21 09:00 8.4 93 7.89 7.3 0 1033 0.6 18.3 27.1 40.5 105.9 97.2 333.2
20 09:00 8 93 7.69 6.9 0 1027.6 0.4 17.9 26.7 39.6 103.6 94.4 323.7
19 09:00 11.6 81 8.42 8.4 19 1015.3 3 19.3 26.3 40.3 105.7 99.0 340.2
18 09:00 12.5 66 7.26 6.4 32 1011.3 0 16.8 24.1 35.0 91.8 82.4 282.1
17 09:00 8.5 86 7.35 6.3 2 1021 0 17.1 25.7 37.6 98.5 88.6 303.5
16 09:00 9.4 95 8.59 8.6 2 1025.1 0 19.8 27.7 42.6 111.7 105.1 361.1
15 09:00 7.4 87 6.92 5.4 4 1023.4 0 16.3 25.4 36.5 95.4 84.2 287.7
14 09:00 7 97 7.52 6.6 2 1028.9 0 17.6 26.7 39.4 103.2 93.4 319.8
13 09:00 10.1 97 9.17 9.7 0 1028.4 0.3 21.0 28.6 44.9 117.7 112.6 387.6
12 09:00 11.5 76 7.85 7.4 7 1021.8 2 18.1 25.7 38.3 100.3 91.9 315.5
11 09:00 9 88 7.76 7.1 0 1016.3 9 18.0 26.0 38.9 101.9 93.3 319.9
10 09:00 12.5 81 8.91 9.4 15 1020.6 0.1 20.3 27.1 42.1 110.4 104.9 361.0
09 09:00 7.1 91 7.1 5.8 0 1023.4 0 16.7 25.8 37.4 97.7 87.0 297.5
08 09:00 6.5 80 6 3.4 2 1027.6 0 14.3 24.3 33.3 86.8 73.0 248.3
07 09:00 10.4 75 7.23 6.1 2 1032.6 0 16.8 25.4 36.8 96.0 85.8 293.5
06 09:00 11 76 7.61 7 2 1034.1 0.1 17.6 25.9 38.1 99.5 90.3 309.4
05 09:00 12.5 83 9.13 9.8 0 1032.3 0.1 20.8 27.9 43.5 114.1 108.9 375.0
04 09:00 10.7 93 9.14 9.7 4 1031.8 0.3 20.9 28.5 44.6 116.9 111.6 384.1
03 09:00 11.1 92 9.27 9.9 11 1023.8 7 21.1 28.2 44.5 116.9 112.2 386.1
02 09:00 8.9 79 6.92 5.4 4 1016.9 5 16.2 24.7 35.5 92.9 82.1 280.8
01 09:00 12.5 72 7.92 7.6 11 1009.8 0 18.2 25.0 37.6 98.5 90.8 311.6
30 09:00 11.5 64 6.61 5 22 1014.1 0.2 15.4 23.4 33.1 86.4 75.3 257.2
29 09:00 7.1 73 5.7 2.6 7 1024 0 13.7 23.5 31.7 82.6 68.3 231.9
28 09:00 9 81 7.14 6 0 1028.1 0 16.7 25.5 36.9 96.3 85.8 293.4
27 09:00 1013.1
26 09:00 10.5 93 9.02 9.5 0 1027.1 0.4 20.6 28.1 43.9 115.3 109.8 377.7
25 09:00 11.1 97 9.77 10.7 2 1021.5 0 22.2 29.0 46.6 122.4 119.1 410.4
24 09:00 9.2 97 8.66 8.8 0 1021 0.5 19.9 27.7 42.8 112.3 106.0 364.3
23 09:00 8.6 91 7.82 7.3 2 1022.1 0 18.2 26.5 39.6 103.7 95.1 326.0
22 09:00 11 87 8.71 9 11 1019.6 1 20.0 27.2 42.0 110.2 104.1 358.0
21 09:00 11 82 8.21 8.1 7 1015.2 8 18.9 26.1 39.7 104.1 96.9 332.8
20 09:00 11.5 89 9.19 9.7 4 1015.8 2 21.0 27.7 43.6 114.4 109.7 377.8
19 09:00 12.9 72 8.12 8.1 26 1017 0.1 18.6 25.5 38.5 100.9 93.5 321.1
18 09:00 10.5 75 7.28 6.2 22 1027.9 0 16.9 25.2 36.7 96.0 86.0 294.3
17 09:00 9 99 8.73 8.8 0 1032.9 0 20.1 28.3 43.8 114.8 108.3 372.2
16 09:00 13.4 89 10.35 11.7 4 1025.2 0.8 23.3 29.4 47.9 125.9 124.1 428.1
15 09:00 14.1 91 11.04 12.6 15 1022.1 12 24.8 30.3 50.3 132.4 132.5 457.5

Last Refresh: 27-Sep-2020 14:29:13

Most of the information presented on this site is sourced from the Bureau of Meteorology.  Copyright in all material sourced from the Bureau of Meteorology resides with the Commonwealth of Australia.